Time;durP1;ratioP1;P1;durP2;ratioP2;P2;SDS_P1;SDS_P2;PMS_P1;PMS_P2;Temp;Humidity;BMP_temperature;BMP_pressure;BME280_temperature;BME280_humidity;BME280_pressure;Samples;Min_cycle;Max_cycle;Signal;HPM_P1;HPM_P2
2023/07/25 00:00:23;;;;;;;20.75;9.38;;;;;;;23.65;42.33;93656.00;5048346;28;20032;-73
2023/07/25 00:02:48;;;;;;;14.48;9.45;;;;;;;23.55;42.23;93637.84;5046031;28;20072;-73
2023/07/25 00:05:14;;;;;;;17.17;9.57;;;;;;;23.55;42.70;93659.56;5046200;28;20061;-73
2023/07/25 00:07:39;;;;;;;19.52;10.20;;;;;;;23.49;42.74;93656.47;5046720;28;20391;-74
2023/07/25 00:10:05;;;;;;;13.55;8.80;;;;;;;23.49;42.92;93656.47;5045534;28;20040;-74
2023/07/25 00:12:30;;;;;;;12.40;8.70;;;;;;;23.39;42.72;93651.09;5046726;28;20041;-73
2023/07/25 00:14:56;;;;;;;17.60;10.23;;;;;;;23.40;42.28;93647.22;5048099;28;20021;-73
2023/07/25 00:17:21;;;;;;;16.90;8.70;;;;;;;23.37;42.68;93648.75;5045962;28;20094;-73
2023/07/25 00:19:46;;;;;;;13.05;8.70;;;;;;;23.31;43.06;93652.31;5050711;28;20455;-73
2023/07/25 00:22:12;;;;;;;14.40;9.35;;;;;;;23.22;43.17;93644.59;5044799;28;20029;-73
2023/07/25 00:24:38;;;;;;;13.48;8.57;;;;;;;23.23;43.32;93642.66;5047271;28;20040;-73
2023/07/25 00:27:03;;;;;;;15.35;8.60;;;;;;;23.20;43.11;93640.75;5045643;28;20021;-74
2023/07/25 00:29:29;;;;;;;17.77;9.82;;;;;;;23.24;43.02;93642.28;5046506;28;20357;-73
2023/07/25 00:31:55;;;;;;;12.82;9.27;;;;;;;23.27;43.29;93643.44;5043690;28;20033;-72
2023/07/25 00:34:20;;;;;;;14.40;9.63;;;;;;;23.24;43.40;93636.06;5058250;28;20036;-74
2023/07/25 00:36:46;;;;;;;13.77;9.23;;;;;;;23.24;43.35;93634.13;5065239;28;20043;-74
2023/07/25 00:39:11;;;;;;;16.77;9.88;;;;;;;23.18;43.14;93624.88;5067311;28;20114;-73
2023/07/25 00:41:37;;;;;;;17.70;10.45;;;;;;;23.19;43.70;93639.97;5067977;28;20025;-75
2023/07/25 00:44:02;;;;;;;14.48;9.52;;;;;;;23.09;43.95;93638.88;5067124;28;20050;-72
2023/07/25 00:46:28;;;;;;;16.92;9.18;;;;;;;23.08;43.40;93637.31;5066822;28;20593;-74
2023/07/25 00:48:53;;;;;;;13.80;9.15;;;;;;;22.88;43.77;93617.28;5067657;27;20597;-73
2023/07/25 00:51:19;;;;;;;15.93;9.90;;;;;;;23.06;43.57;93633.47;5063128;28;20435;-73
2023/07/25 00:53:45;;;;;;;14.65;9.85;;;;;;;22.98;43.62;93621.88;5056740;28;20020;-74
2023/07/25 00:56:12;;;;;;;17.27;8.90;;;;;;;22.98;43.11;93615.69;5065383;28;20028;-72
2023/07/25 00:58:38;;;;;;;13.65;9.10;;;;;;;22.97;42.99;93606.81;5064217;28;20066;-73
2023/07/25 01:01:05;;;;;;;18.80;10.15;;;;;;;23.05;43.44;93621.06;5065438;28;20118;-73
2023/07/25 01:03:33;;;;;;;23.95;9.35;;;;;;;23.03;43.60;93617.97;5065519;28;20276;-73
2023/07/25 01:06:02;;;;;;;14.13;8.63;;;;;;;22.90;43.67;93609.53;5065071;28;20024;-73
2023/07/25 01:08:27;;;;;;;18.95;9.63;;;;;;;22.92;43.67;93607.22;5061350;28;20050;-74
2023/07/25 01:10:53;;;;;;;15.82;9.00;;;;;;;22.90;43.85;93614.19;5049337;28;20044;-74
2023/07/25 01:13:18;;;;;;;13.68;9.25;;;;;;;22.80;44.27;93610.34;5045932;28;20071;-73
2023/07/25 01:15:44;;;;;;;15.25;9.13;;;;;;;22.72;44.12;93614.25;5045122;28;20550;-73
2023/07/25 01:18:10;;;;;;;17.13;9.43;;;;;;;22.82;44.06;93628.94;5045682;28;20117;-74
2023/07/25 01:20:36;;;;;;;15.80;9.68;;;;;;;22.74;44.21;93622.75;5047044;28;20404;-73
2023/07/25 01:23:06;;;;;;;14.60;8.75;;;;;;;22.85;43.80;93634.31;5046727;28;20044;-73
2023/07/25 01:25:32;;;;;;;15.68;9.52;;;;;;;22.77;44.22;93632.81;5044161;28;20049;-73
2023/07/25 01:27:57;;;;;;;19.13;9.13;;;;;;;22.73;44.49;93616.56;5044151;28;20032;-73
2023/07/25 01:30:23;;;;;;;17.95;9.23;;;;;;;22.72;44.41;93625.09;5042769;28;20041;-73
2023/07/25 01:32:48;;;;;;;15.70;9.45;;;;;;;22.57;44.56;93601.94;5044558;28;20547;-73
2023/07/25 01:35:14;;;;;;;13.13;8.98;;;;;;;22.71;44.33;93618.91;5047649;28;20944;-73
2023/07/25 01:37:39;;;;;;;22.30;10.40;;;;;;;22.70;44.57;93605.72;5046455;28;20035;-73
2023/07/25 01:40:05;;;;;;;13.80;9.45;;;;;;;22.69;43.82;93610.38;5045462;28;20432;-73
2023/07/25 01:42:31;;;;;;;15.50;9.15;;;;;;;22.71;43.96;93610.78;5047177;28;20264;-73
2023/07/25 01:44:57;;;;;;;16.02;9.63;;;;;;;22.75;43.59;93610.75;5052903;28;20061;-72
2023/07/25 01:47:25;;;;;;;15.35;9.80;;;;;;;22.73;43.44;93608.41;5045407;28;20457;-73
2023/07/25 01:49:52;;;;;;;13.63;8.93;;;;;;;22.75;43.71;93608.03;5043556;28;20620;-74
2023/07/25 01:52:17;;;;;;;14.70;8.90;;;;;;;22.71;43.42;93607.28;5046689;28;20034;-74
2023/07/25 01:54:43;;;;;;;14.50;9.85;;;;;;;22.65;43.51;93603.44;5044024;28;20071;-73
2023/07/25 01:57:08;;;;;;;16.27;8.95;;;;;;;22.73;43.91;93615.81;5043943;28;20031;-73
2023/07/25 01:59:33;;;;;;;13.98;8.98;;;;;;;22.74;43.88;93628.16;5043978;28;20127;-73
2023/07/25 02:01:59;;;;;;;13.70;8.65;;;;;;;22.67;44.10;93622.78;5043744;28;20132;-72
2023/07/25 02:04:24;;;;;;;12.80;8.57;;;;;;;22.73;44.06;93632.81;5041788;28;20372;-73
2023/07/25 02:06:49;;;;;;;14.00;9.23;;;;;;;22.68;44.07;93627.81;5042597;28;20040;-73
2023/07/25 02:09:15;;;;;;;16.48;9.73;;;;;;;22.58;43.86;93620.50;5052849;28;20076;-73
2023/07/25 02:11:40;;;;;;;16.30;9.80;;;;;;;22.61;44.62;93640.63;5043924;28;20364;-73
2023/07/25 02:14:06;;;;;;;16.95;9.52;;;;;;;22.55;44.67;93648.38;5044726;28;20051;-74
2023/07/25 02:16:33;;;;;;;13.38;8.93;;;;;;;22.59;44.52;93649.13;5047146;28;20188;-73
2023/07/25 02:18:59;;;;;;;16.33;9.95;;;;;;;22.56;44.87;93646.44;5043413;28;20043;-74
2023/07/25 02:21:24;;;;;;;13.30;8.65;;;;;;;22.54;45.23;93654.19;5046103;28;20684;-73
2023/07/25 02:23:49;;;;;;;14.73;9.30;;;;;;;22.46;45.40;93653.44;5044155;28;20040;-73
2023/07/25 02:26:15;;;;;;;15.48;9.95;;;;;;;22.47;45.38;93646.09;5044241;28;20044;-74
2023/07/25 02:28:40;;;;;;;16.10;9.77;;;;;;;22.51;44.98;93660.41;5042928;28;20128;-73
2023/07/25 02:31:05;;;;;;;13.43;9.05;;;;;;;22.41;45.22;93655.78;5046149;28;20041;-74
2023/07/25 02:33:31;;;;;;;18.58;10.48;;;;;;;22.27;45.33;93637.63;5045310;28;20040;-74
2023/07/25 02:35:56;;;;;;;16.70;10.63;;;;;;;22.49;45.40;93662.72;5042922;28;20275;-74
2023/07/25 02:38:24;;;;;;;14.48;9.75;;;;;;;22.48;45.45;93663.91;5044500;28;20132;-73
2023/07/25 02:40:49;;;;;;;16.77;10.07;;;;;;;22.44;45.58;93671.28;5044078;28;20029;-74
2023/07/25 02:43:14;;;;;;;20.38;9.48;;;;;;;22.37;45.91;93663.94;5044159;28;20103;-74
2023/07/25 02:45:40;;;;;;;17.38;10.90;;;;;;;22.33;46.00;93659.69;5047637;28;20498;-73
2023/07/25 02:48:05;;;;;;;14.43;9.77;;;;;;;22.37;45.67;93658.50;5043192;28;20106;-74
2023/07/25 02:50:31;;;;;;;16.15;9.23;;;;;;;22.37;45.66;93657.75;5046583;28;20025;-73
2023/07/25 02:52:56;;;;;;;18.60;9.88;;;;;;;22.32;45.77;93652.72;5043798;28;20033;-73
2023/07/25 02:55:21;;;;;;;13.00;8.70;;;;;;;22.37;45.63;93655.81;5046062;28;20506;-73
2023/07/25 02:57:47;;;;;;;19.85;9.68;;;;;;;22.35;45.59;93638.38;5044296;28;20041;-73
2023/07/25 03:00:13;;;;;;;14.32;9.60;;;;;;;22.35;45.07;93649.22;5044884;28;20075;-73
2023/07/25 03:02:39;;;;;;;16.98;10.90;;;;;;;22.20;44.94;93637.63;5045001;28;20081;-74
2023/07/25 03:05:04;;;;;;;15.50;9.82;;;;;;;22.35;44.75;93649.22;5039893;28;20037;-73
2023/07/25 03:07:30;;;;;;;17.52;10.00;;;;;;;22.35;44.90;93649.22;5044282;28;20495;-75
2023/07/25 03:09:55;;;;;;;15.38;11.00;;;;;;;22.27;45.29;93662.78;5042344;28;20416;-74
2023/07/25 03:12:20;;;;;;;16.08;10.48;;;;;;;22.16;45.76;93644.97;5045055;28;20043;-73
2023/07/25 03:14:46;;;;;;;19.95;10.25;;;;;;;22.12;46.31;93646.94;5042711;28;20464;-73
2023/07/25 03:17:11;;;;;;;15.02;9.52;;;;;;;22.03;46.08;93633.78;5044270;28;20036;-73
2023/07/25 03:19:37;;;;;;;13.80;10.10;;;;;;;22.12;46.38;93658.53;5045370;28;20037;-73
2023/07/25 03:22:02;;;;;;;21.73;11.00;;;;;;;22.06;46.14;93657.38;5047255;28;20036;-73
2023/07/25 03:24:27;;;;;;;15.57;9.75;;;;;;;21.96;46.56;93652.75;5046583;28;20045;-74
2023/07/25 03:26:53;;;;;;;17.20;11.05;;;;;;;21.99;46.94;93657.41;5046911;28;20025;-74
2023/07/25 03:29:18;;;;;;;18.52;10.63;;;;;;;21.93;47.47;93652.75;5047411;28;20064;-74
2023/07/25 03:31:43;;;;;;;19.30;12.00;;;;;;;21.87;47.29;93644.25;5046143;28;20423;-74
2023/07/25 03:34:09;;;;;;;22.67;11.48;;;;;;;21.83;47.58;93651.59;5045046;28;20328;-75
2023/07/25 03:36:37;;;;;;;17.75;11.85;;;;;;;21.77;47.98;93647.72;5048910;28;20044;-73
2023/07/25 03:39:02;;;;;;;22.05;11.82;;;;;;;21.79;48.04;93648.13;5047589;28;20032;-73
2023/07/25 03:41:28;;;;;;;18.25;13.07;;;;;;;21.82;47.93;93658.19;5047913;28;20029;-73
2023/07/25 03:43:53;;;;;;;21.52;12.98;;;;;;;21.88;48.16;93662.03;5046719;28;20033;-74
2023/07/25 03:46:18;;;;;;;19.75;11.15;;;;;;;21.77;48.12;93648.50;5047786;28;20626;-73
2023/07/25 03:48:44;;;;;;;16.40;11.35;;;;;;;21.77;48.58;93655.84;5046964;28;20302;-73
2023/07/25 03:51:09;;;;;;;16.55;11.45;;;;;;;21.75;48.83;93650.06;5048946;28;20432;-74
2023/07/25 03:53:35;;;;;;;18.50;11.05;;;;;;;21.82;48.92;93650.84;5049461;28;20039;-73
2023/07/25 03:56:00;;;;;;;19.58;11.93;;;;;;;21.76;48.67;93643.47;5045772;28;20049;-73
2023/07/25 03:58:26;;;;;;;16.77;11.15;;;;;;;21.90;48.55;93648.91;5046954;28;20152;-74
2023/07/25 04:00:51;;;;;;;17.98;12.05;;;;;;;21.80;48.53;93631.47;5046391;28;20412;-74
2023/07/25 04:03:16;;;;;;;17.33;10.93;;;;;;;21.93;48.80;93634.59;5047204;28;20063;-74
2023/07/25 04:05:42;;;;;;;14.65;10.63;;;;;;;21.79;48.78;93612.94;5044051;28;20486;-73
2023/07/25 04:08:07;;;;;;;14.77;9.75;;;;;;;21.76;48.79;93613.69;5045540;28;20041;-75
2023/07/25 04:10:32;;;;;;;17.42;10.25;;;;;;;21.93;49.12;93642.69;5045978;28;20040;-73
2023/07/25 04:12:58;;;;;;;20.42;10.30;;;;;;;21.94;48.45;93646.97;5047104;28;20036;-73
2023/07/25 04:15:23;;;;;;;20.85;11.65;;;;;;;22.03;48.07;93655.47;5045771;28;20142;-74
2023/07/25 04:17:48;;;;;;;23.40;11.73;;;;;;;22.08;48.41;93665.91;5049655;28;20501;-74
2023/07/25 04:20:14;;;;;;;16.35;11.57;;;;;;;22.12;48.36;93672.06;5046401;28;20025;-73
2023/07/25 04:22:39;;;;;;;23.40;12.00;;;;;;;22.12;48.71;93663.19;5046241;28;20411;-74
2023/07/25 04:25:05;;;;;;;19.52;11.55;;;;;;;22.22;47.92;93660.47;5055952;28;20035;-73
2023/07/25 04:27:31;;;;;;;20.75;12.70;;;;;;;22.10;47.50;93635.69;5047758;28;20037;-73
2023/07/25 04:29:57;;;;;;;20.38;11.57;;;;;;;22.21;47.68;93650.00;5044262;28;20111;-74
2023/07/25 04:32:22;;;;;;;20.50;11.70;;;;;;;22.34;47.23;93658.53;5045547;28;20355;-74
2023/07/25 04:34:48;;;;;;;17.83;12.02;;;;;;;22.40;47.58;93659.66;5045255;28;20408;-73
2023/07/25 04:37:13;;;;;;;20.52;10.98;;;;;;;22.28;47.48;93637.25;5046173;28;20530;-74
2023/07/25 04:39:39;;;;;;;23.08;13.05;;;;;;;22.40;46.87;93640.69;5048103;28;20422;-74
2023/07/25 04:42:04;;;;;;;25.30;13.82;;;;;;;22.56;48.16;93646.44;5045764;28;20110;-73
2023/07/25 04:44:30;;;;;;;23.17;12.68;;;;;;;22.52;48.28;93641.06;5045897;28;20376;-73
2023/07/25 04:46:55;;;;;;;21.90;12.45;;;;;;;22.59;48.70;93642.94;5045789;28;20037;-74
2023/07/25 04:49:21;;;;;;;25.42;11.57;;;;;;;22.61;48.98;93637.91;5045743;28;20388;-73
2023/07/25 04:51:46;;;;;;;24.13;12.10;;;;;;;22.72;47.98;93638.66;5043566;28;20053;-73
2023/07/25 04:54:11;;;;;;;21.15;12.18;;;;;;;22.72;48.38;93635.94;5046360;28;20479;-73
2023/07/25 04:56:40;;;;;;;24.05;12.07;;;;;;;22.74;48.27;93637.06;5046814;28;20131;-74
2023/07/25 04:59:05;;;;;;;21.10;12.70;;;;;;;22.79;48.51;93641.31;5044222;28;20053;-73
2023/07/25 05:01:30;;;;;;;23.17;12.88;;;;;;;22.93;47.67;93644.00;5047954;28;20120;-73
2023/07/25 05:03:56;;;;;;;20.67;12.68;;;;;;;22.94;46.97;93631.97;5044509;28;20519;-73
2023/07/25 05:06:21;;;;;;;27.08;13.18;;;;;;;23.01;47.99;93634.66;5046345;28;20025;-74
2023/07/25 05:08:46;;;;;;;22.55;13.45;;;;;;;23.03;47.71;93629.59;5046005;28;20500;-74
2023/07/25 05:11:12;;;;;;;24.65;14.38;;;;;;;23.06;47.30;93622.63;5044851;28;20147;-73
2023/07/25 05:13:37;;;;;;;27.15;13.75;;;;;;;23.00;46.77;93608.72;5044011;28;20526;-74
2023/07/25 05:16:03;;;;;;;22.20;13.70;;;;;;;23.17;46.70;93619.84;5045171;28;20052;-74
2023/07/25 05:18:28;;;;;;;27.17;13.07;;;;;;;23.15;47.55;93610.16;5052408;28;20071;-73
2023/07/25 05:20:54;;;;;;;25.98;13.77;;;;;;;23.25;46.73;93618.63;5045091;28;20524;-74
2023/07/25 05:23:19;;;;;;;24.75;13.30;;;;;;;23.19;46.50;93621.00;5043114;28;20041;-74
2023/07/25 05:25:48;;;;;;;25.50;14.23;;;;;;;23.16;46.25;93621.78;5045253;28;20561;-72
2023/07/25 05:28:14;;;;;;;26.35;14.98;;;;;;;23.27;46.51;93633.31;5045464;28;20093;-72
2023/07/25 05:30:39;;;;;;;25.38;14.77;;;;;;;23.30;46.11;93634.50;5046658;28;20039;-72
2023/07/25 05:33:06;;;;;;;23.02;15.18;;;;;;;23.35;46.17;93634.84;5045319;28;20031;-72
2023/07/25 05:35:31;;;;;;;20.98;14.05;;;;;;;23.38;46.23;93642.19;5047018;28;20120;-72
2023/07/25 05:37:58;;;;;;;30.35;14.18;;;;;;;23.43;45.80;93640.97;5045410;28;20043;-72
2023/07/25 05:40:23;;;;;;;24.90;15.70;;;;;;;23.46;45.48;93630.13;5052581;28;20522;-72
2023/07/25 05:42:48;;;;;;;21.42;15.02;;;;;;;23.56;44.23;93636.66;5045865;28;20045;-73
2023/07/25 05:45:14;;;;;;;21.30;14.85;;;;;;;23.55;45.14;93635.13;5043892;28;20132;-72
2023/07/25 05:47:39;;;;;;;22.23;13.90;;;;;;;23.60;45.42;93634.69;5046409;28;20017;-71
2023/07/25 05:50:06;;;;;;;26.15;14.52;;;;;;;23.62;46.30;93632.34;5042756;28;20579;-72
2023/07/25 05:52:31;;;;;;;24.20;13.77;;;;;;;23.62;45.54;93626.91;5044066;28;20067;-73
2023/07/25 05:54:57;;;;;;;29.65;13.40;;;;;;;23.69;45.10;93632.28;5051940;28;20465;-72
2023/07/25 05:57:22;;;;;;;32.00;14.48;;;;;;;23.74;45.47;93614.81;5064946;28;20099;-73
2023/07/25 05:59:47;;;;;;;27.85;13.35;;;;;;;23.76;45.37;93621.34;5066304;28;20459;-72
2023/07/25 06:02:13;;;;;;;23.13;13.95;;;;;;;23.79;44.52;93622.50;5063705;28;20055;-72
2023/07/25 06:04:38;;;;;;;20.73;13.43;;;;;;;23.93;44.27;93623.16;5065666;28;20129;-72
2023/07/25 06:07:04;;;;;;;25.95;13.75;;;;;;;24.01;45.12;93624.63;5063933;28;20423;-72
2023/07/25 06:09:30;;;;;;;17.30;12.52;;;;;;;23.99;44.60;93601.78;5064438;28;20176;-74
2023/07/25 06:11:55;;;;;;;22.85;14.50;;;;;;;24.12;44.48;93607.47;5060760;28;20636;-74
2023/07/25 06:14:21;;;;;;;28.48;13.40;;;;;;;24.23;45.39;93589.91;5060447;28;20044;-73
2023/07/25 06:16:47;;;;;;;23.75;12.93;;;;;;;24.30;46.14;93605.34;5061387;28;20209;-72
2023/07/25 06:19:12;;;;;;;27.55;15.10;;;;;;;24.33;45.94;93601.81;5063560;28;20691;-74
2023/07/25 06:21:38;;;;;;;24.55;14.18;;;;;;;24.36;45.61;93593.63;5062525;28;20074;-73
2023/07/25 06:24:03;;;;;;;21.77;13.48;;;;;;;24.48;45.03;93586.91;5063879;28;20142;-73
2023/07/25 06:26:29;;;;;;;24.52;13.65;;;;;;;24.56;45.43;93591.06;5063269;28;20031;-73
2023/07/25 06:28:55;;;;;;;24.52;13.48;;;;;;;24.63;45.43;93573.91;5062029;28;20040;-74
2023/07/25 06:31:21;;;;;;;21.42;12.90;;;;;;;24.84;44.19;93584.50;5058195;28;20506;-73
2023/07/25 06:33:46;;;;;;;21.15;12.00;;;;;;;24.96;44.88;93577.75;5064270;28;20044;-73
2023/07/25 06:36:11;;;;;;;22.00;13.20;;;;;;;25.00;44.67;93571.09;5056711;28;20438;-73
2023/07/25 06:38:37;;;;;;;25.35;13.38;;;;;;;25.02;44.63;93557.09;5065901;28;20082;-73
2023/07/25 06:41:02;;;;;;;24.88;13.63;;;;;;;25.14;44.08;93557.28;5060874;28;20549;-73
2023/07/25 06:43:27;;;;;;;28.38;13.18;;;;;;;25.20;43.79;93558.34;5054645;28;20041;-73
2023/07/25 06:45:53;;;;;;;25.38;12.40;;;;;;;25.32;43.50;93575.34;5062617;28;20117;-74
2023/07/25 06:48:19;;;;;;;20.60;11.50;;;;;;;25.29;43.21;93574.16;5063428;28;20056;-73
2023/07/25 06:50:45;;;;;;;26.02;12.15;;;;;;;25.42;43.13;93575.16;5064758;28;20149;-73
2023/07/25 06:53:11;;;;;;;20.83;11.70;;;;;;;25.33;42.94;93558.56;5063322;28;20028;-72
2023/07/25 06:55:39;;;;;;;19.73;12.27;;;;;;;25.44;42.38;93567.34;5068767;28;20036;-72
2023/07/25 06:58:05;;;;;;;21.30;11.48;;;;;;;25.47;42.78;93577.41;5071380;28;20032;-74
2023/07/25 07:00:30;;;;;;;18.70;12.07;;;;;;;25.55;42.88;93573.41;5067933;28;20062;-71
2023/07/25 07:02:55;;;;;;;26.80;12.38;;;;;;;25.54;43.16;93569.13;5069253;28;20454;-72
2023/07/25 07:05:21;;;;;;;28.90;12.73;;;;;;;25.64;42.88;93575.59;5069248;28;20480;-73
2023/07/25 07:07:46;;;;;;;28.33;11.50;;;;;;;25.74;42.56;93587.47;5067528;28;20070;-72
2023/07/25 07:10:12;;;;;;;18.80;10.70;;;;;;;25.74;42.26;93584.75;5066407;28;20110;-73
2023/07/25 07:12:42;;;;;;;31.40;11.52;;;;;;;25.80;41.15;93577.66;5068536;28;20541;-72
2023/07/25 07:15:08;;;;;;;26.48;11.30;;;;;;;25.87;42.19;93577.53;5059289;28;20075;-72
2023/07/25 07:17:34;;;;;;;18.13;11.05;;;;;;;25.83;41.51;93565.91;5063834;28;20289;-72
2023/07/25 07:20:00;;;;;;;21.35;11.50;;;;;;;25.93;42.54;93581.34;5061581;28;20036;-73
2023/07/25 07:22:26;;;;;;;23.08;12.27;;;;;;;25.98;41.28;93573.47;5066224;28;20036;-73
2023/07/25 07:24:51;;;;;;;24.52;11.50;;;;;;;25.98;41.70;93569.97;5063076;28;20109;-73
2023/07/25 07:27:19;;;;;;;22.20;11.00;;;;;;;26.06;42.02;93571.38;5067897;28;20485;-73
2023/07/25 07:29:45;;;;;;;26.48;12.65;;;;;;;26.08;41.00;93561.59;5068132;28;20023;-72
2023/07/25 07:32:10;;;;;;;26.15;11.35;;;;;;;26.17;41.29;93571.16;5068199;28;20024;-72
2023/07/25 07:34:35;;;;;;;21.83;11.95;;;;;;;26.24;40.60;93573.78;5064007;28;20040;-73
2023/07/25 07:37:23;;;;;;;24.30;12.63;;;;;;;26.21;40.23;93555.50;5067729;28;20044;-73
2023/07/25 07:39:48;;;;;;;25.67;11.20;;;;;;;26.24;41.08;93563.66;5065424;28;21108;-72
2023/07/25 07:42:14;;;;;;;20.90;10.75;;;;;;;26.34;40.85;93557.22;5065880;28;20070;-73
2023/07/25 07:44:39;;;;;;;29.08;12.23;;;;;;;26.38;40.27;93548.97;5066942;28;20012;-72
2023/07/25 07:47:06;;;;;;;23.88;12.57;;;;;;;26.26;41.12;93542.19;5063760;28;20639;-73
2023/07/25 07:49:34;;;;;;;20.63;12.70;;;;;;;26.38;40.03;93555.19;5069568;28;20040;-73
2023/07/25 07:52:01;;;;;;;30.13;11.82;;;;;;;26.27;40.04;93543.72;5062911;28;20061;-72
2023/07/25 07:54:26;;;;;;;24.23;12.00;;;;;;;26.42;41.00;93547.69;5069117;28;20040;-72
2023/07/25 07:56:52;;;;;;;21.45;11.77;;;;;;;26.43;39.66;93554.69;5065230;28;20089;-72
2023/07/25 07:59:17;;;;;;;23.60;12.27;;;;;;;26.33;39.57;93541.28;5066383;28;20100;-73
2023/07/25 08:01:43;;;;;;;33.78;12.10;;;;;;;26.27;40.05;93523.88;5067502;28;20786;-73
2023/07/25 08:04:09;;;;;;;24.08;11.95;;;;;;;26.38;40.24;93517.03;5061422;28;20040;-73
2023/07/25 08:06:34;;;;;;;22.60;11.68;;;;;;;26.52;39.80;93530.38;5065114;28;20406;-73
2023/07/25 08:08:59;;;;;;;23.67;11.60;;;;;;;26.55;40.50;93532.25;5064763;28;20044;-74
2023/07/25 08:11:25;;;;;;;20.13;12.07;;;;;;;26.53;39.81;93518.28;5058700;28;20596;-75
2023/07/25 08:13:50;;;;;;;22.92;12.63;;;;;;;26.61;41.47;93527.09;5054540;28;20040;-74
2023/07/25 08:16:15;;;;;;;21.95;11.15;;;;;;;26.62;40.67;93519.69;5055133;28;20177;-73
2023/07/25 08:18:41;;;;;;;23.55;12.05;;;;;;;26.58;40.18;93522.47;5057135;28;20055;-73
2023/07/25 08:21:06;;;;;;;17.85;11.27;;;;;;;26.70;39.35;93523.78;5039081;28;20040;-73
2023/07/25 08:23:32;;;;;;;20.85;11.63;;;;;;;26.71;39.80;93515.19;5066270;28;20051;-73
2023/07/25 08:25:57;;;;;;;19.92;11.65;;;;;;;26.82;39.89;93514.94;5061127;28;20037;-73
2023/07/25 08:28:24;;;;;;;23.75;12.00;;;;;;;27.02;39.66;93525.84;5048743;28;20052;-74
2023/07/25 08:30:59;;;;;;;20.10;11.82;;;;;;;27.04;39.30;93520.72;5057850;28;20033;-74
2023/07/25 08:33:31;;;;;;;23.42;11.90;;;;;;;27.06;38.90;93513.66;5058878;28;20044;-74
2023/07/25 08:35:57;;;;;;;21.35;12.38;;;;;;;26.97;37.78;93495.13;5058296;28;20824;-73
2023/07/25 08:38:24;;;;;;;24.55;12.10;;;;;;;26.99;37.98;93513.78;5060491;28;20051;-74
2023/07/25 08:41:01;;;;;;;16.13;10.85;;;;;;;27.08;38.09;93505.81;5058833;28;20044;-74
2023/07/25 08:43:29;;;;;;;24.58;11.65;;;;;;;27.22;37.94;93508.22;5061150;28;20048;-73
2023/07/25 08:45:58;;;;;;;20.55;11.32;;;;;;;27.19;37.98;93495.41;5072908;28;20035;-74
2023/07/25 08:48:25;;;;;;;19.42;10.98;;;;;;;27.27;36.25;93496.78;5056929;28;20048;-74
2023/07/25 08:50:52;;;;;;;19.13;11.30;;;;;;;27.34;36.52;93498.56;5067576;28;20104;-74
2023/07/25 08:53:19;;;;;;;19.55;11.50;;;;;;;27.33;35.73;93494.28;5068826;28;20024;-74
2023/07/25 08:55:45;;;;;;;19.60;10.73;;;;;;;27.37;36.06;93500.44;5068243;28;20079;-74
2023/07/25 08:58:13;;;;;;;19.90;10.98;;;;;;;27.44;35.67;93496.75;5066412;28;20127;-74
2023/07/25 09:00:41;;;;;;;21.95;11.32;;;;;;;27.46;35.73;93494.38;5058023;28;20040;-75
2023/07/25 09:03:07;;;;;;;19.92;10.70;;;;;;;27.54;36.13;93487.53;5056859;28;20579;-73
2023/07/25 09:05:33;;;;;;;21.67;10.32;;;;;;;27.63;36.33;93495.91;5050683;28;20031;-75
2023/07/25 09:07:59;;;;;;;18.75;10.25;;;;;;;27.71;35.47;93476.19;5057503;28;20050;-73
2023/07/25 09:10:29;;;;;;;18.42;9.63;;;;;;;27.74;35.81;93482.75;5052704;28;20840;-73
2023/07/25 09:12:54;;;;;;;19.65;10.38;;;;;;;27.83;36.18;93472.72;5057669;28;20045;-74
2023/07/25 09:15:20;;;;;;;19.98;10.70;;;;;;;27.92;35.69;93482.25;5058254;28;20472;-74
2023/07/25 09:17:45;;;;;;;16.45;10.20;;;;;;;27.90;34.88;93468.28;5058258;28;20024;-74
2023/07/25 09:20:12;;;;;;;22.33;10.23;;;;;;;27.94;35.89;93472.44;5058060;28;20024;-74
2023/07/25 09:22:37;;;;;;;16.98;9.93;;;;;;;27.88;35.19;93457.78;5057575;28;20055;-74
2023/07/25 09:25:07;;;;;;;20.08;11.45;;;;;;;28.01;34.51;93466.78;5057453;28;20546;-75
2023/07/25 09:27:32;;;;;;;21.48;9.55;;;;;;;27.94;33.99;93458.78;5054559;28;20044;-71
2023/07/25 09:29:57;;;;;;;19.00;9.77;;;;;;;28.09;34.11;93468.13;5059614;28;20509;-72
2023/07/25 09:32:27;;;;;;;18.40;11.02;;;;;;;28.17;34.23;93471.44;5058665;28;20037;-72
2023/07/25 09:34:58;;;;;;;20.13;9.82;;;;;;;28.14;33.57;93467.63;5057666;28;20683;-73
2023/07/25 09:37:24;;;;;;;15.07;10.00;;;;;;;28.23;35.05;93466.97;5056369;28;20040;-73
2023/07/25 09:39:50;;;;;;;20.50;10.30;;;;;;;28.37;34.43;93477.50;5057901;28;20067;-73
2023/07/25 09:42:15;;;;;;;20.77;10.25;;;;;;;28.42;34.07;93476.97;5055116;28;20039;-74
2023/07/25 09:44:47;;;;;;;21.80;10.27;;;;;;;28.41;33.44;93469.19;5057403;28;20090;-75
2023/07/25 09:47:19;;;;;;;19.17;10.23;;;;;;;28.44;34.83;93471.09;5054036;28;20102;-74
2023/07/25 09:49:49;;;;;;;16.88;9.02;;;;;;;28.46;33.26;93460.44;5056880;28;20385;-74
2023/07/25 09:52:16;;;;;;;20.08;10.40;;;;;;;28.50;33.51;93467.34;5051962;28;20040;-74
2023/07/25 09:54:41;;;;;;;17.20;10.15;;;;;;;28.53;33.24;93471.19;5056880;28;20044;-73
2023/07/25 09:57:07;;;;;;;18.80;9.32;;;;;;;28.54;33.43;93475.47;5054928;28;20489;-74
2023/07/25 09:59:34;;;;;;;18.90;9.07;;;;;;;28.50;33.16;93458.41;5054992;28;20083;-73
2023/07/25 10:02:00;;;;;;;16.33;9.93;;;;;;;28.53;33.40;93457.53;5054271;28;20224;-74
2023/07/25 10:04:27;;;;;;;19.88;9.60;;;;;;;28.67;33.17;93457.13;5056504;28;20548;-72
2023/07/25 10:06:52;;;;;;;21.58;10.38;;;;;;;28.81;34.99;93451.22;5056131;28;20114;-73
2023/07/25 10:09:18;;;;;;;22.05;10.10;;;;;;;28.93;36.85;93441.47;5058357;28;20036;-74
2023/07/25 10:11:44;;;;;;;15.30;9.32;;;;;;;28.90;35.50;93434.91;5056569;28;20028;-74
2023/07/25 10:14:09;;;;;;;19.45;9.02;;;;;;;28.85;34.97;93416.28;5057846;28;20127;-73
2023/07/25 10:16:37;;;;;;;18.77;9.90;;;;;;;28.92;33.99;93421.53;5055919;28;20147;-73
2023/07/25 10:19:05;;;;;;;19.42;9.65;;;;;;;28.92;32.86;93423.50;5057229;28;20833;-74
2023/07/25 10:21:49;;;;;;;22.40;9.10;;;;;;;28.99;34.23;93415.84;5056876;28;20129;-73
2023/07/25 10:24:15;;;;;;;20.63;8.88;;;;;;;28.94;33.47;93399.22;5055768;28;20063;-73
2023/07/25 10:26:53;;;;;;;17.13;10.30;;;;;;;29.06;33.34;93404.66;5060272;28;20557;-72
2023/07/25 10:29:44;;;;;;;20.23;9.35;;;;;;;29.21;36.05;93401.50;5054721;28;20048;-72
2023/07/25 10:32:13;;;;;;;19.98;10.38;;;;;;;29.18;34.24;93392.19;5067180;28;20155;-73
2023/07/25 10:34:50;;;;;;;16.63;9.82;;;;;;;29.22;32.81;93398.31;5064670;28;20036;-72
2023/07/25 10:37:18;;;;;;;15.68;9.40;;;;;;;29.38;35.88;93392.66;5068135;28;20042;-73
2023/07/25 10:39:44;;;;;;;16.65;8.82;;;;;;;29.47;33.83;93389.25;5070168;28;20039;-73
2023/07/25 10:42:15;;;;;;;22.50;9.57;;;;;;;29.44;32.91;93368.22;5067793;28;20032;-73
2023/07/25 10:44:40;;;;;;;23.60;10.27;;;;;;;29.49;32.17;93365.66;5069989;28;20107;-72
2023/07/25 10:47:48;;;;;;;15.43;8.73;;;;;;;29.51;32.50;93367.97;5066812;28;20084;-73
2023/07/25 10:50:17;;;;;;;17.48;9.60;;;;;;;29.51;32.49;93371.50;5066062;28;20037;-73
2023/07/25 10:52:44;;;;;;;17.73;9.55;;;;;;;29.60;32.58;93367.28;5065637;28;20064;-73
2023/07/25 10:55:12;;;;;;;16.60;7.53;;;;;;;29.72;32.91;93359.00;5065962;28;20054;-72
2023/07/25 10:57:38;;;;;;;13.50;8.02;;;;;;;29.88;36.00;93356.09;5063495;28;20031;-73
2023/07/25 11:00:05;;;;;;;20.98;9.32;;;;;;;29.86;31.88;93342.06;5066053;28;20048;-72
2023/07/25 11:02:40;;;;;;;13.68;8.55;;;;;;;29.82;32.52;93330.47;5069219;28;20027;-72
2023/07/25 11:05:11;;;;;;;15.57;9.07;;;;;;;30.05;35.50;93344.91;5064010;28;20168;-72
2023/07/25 11:07:36;;;;;;;15.23;9.07;;;;;;;29.91;32.38;93316.84;5058939;28;20376;-73
2023/07/25 11:10:02;;;;;;;18.13;9.02;;;;;;;30.04;32.23;93313.22;5063060;28;20176;-73
2023/07/25 11:12:28;;;;;;;21.85;8.73;;;;;;;30.03;32.36;93322.66;5068524;28;20037;-72
2023/07/25 11:14:55;;;;;;;20.60;8.50;;;;;;;30.20;34.71;93327.50;5064158;28;20032;-72